Main page

Airports :

Islamabad, Pakistan

Benazir Bhutto International Airport

latitude: 33-37N, longitude: 073-06E, elevation: 507 m

Current weather observation

The report was made 41 minutes ago, at 23:00 UTC
Calm wind
Temperature 10°C
Humidity 87%
Pressure 1016 hPa
Visibility: 4000 m

METAR: OPRN 012300Z 00000KT 4000 BR NSC 10/08 Q1016.5/30.02

Time: 04:41 (23:41 UTC)


The report was made 2 hours and 11 minutes ago, at 21:30 UTC
Forecast valid from 02 at 00 UTC to 03 at 06 UTC
Wind 8 kt from the Northwest
Visibility: 4000 m
from 02 at 01 UTC to 02 at 05 UTC
Wind 5 kt from the North/Northeast
Visibility: 1000 m
from 03 at 02 UTC to 03 at 04 UTC
Wind kt from the North
Visibility: 1500 m

TAF: OPRN 012130Z 0200/0306 32008KT 4000 HZ TEMPO 0201/0205 03005KT 1000 BR NSC BECMG 0302/0304 00000KT 1500 BR


Weather observations and forecasts of more than 4000 airports (METAR and TAF reports).

The available stations are represented by yellow and red dots on the map.

Hover mouse over dot to see the name of the station.

Then click to see weather observations and forecasts.

To change the map : click on the green buttons with a black cross to zoom in, on the green button with a dash to zoom out, or on the green arrows for adjacent maps.